Scroll down
FLIGHT INFORMATION
Omni Air International

OAE331

At Arrival Gate

KMSN
 KGRB
DATE: 2021-03-31
GATE: G6
GATE DEPARTURE: 16:49
TAKEOFF: 16:59
DATE: 2021-03-31
GATE:  -
LANDING: 17:23
GATE ARRIVAL: 17:28
FLIGHT DATA
Crew: 
Speed: 
268 kts
Altitude: 
9,016 ft
Stage Length: 
96.2 nm
Block Time: 
0.6 hrs
Flight Time: 
0.4 hrs
Fuel Used: 
8,692 lb
Cleared Route: KMSN OSH RW36
TRACK DATA
50,000 ft 1,000 kts
AIRCRAFT INFO AND CUMULATIVE STATS
Aircraft Type: 
B772
Registration: 
SELCAL: 
EMJR
MSN/LN: 
33681 / 479
Total Flights: 
2
Total Block Time: 
1.7 hrs
Total Flight Time: 
1.3 hrs
Total Fuel Used: 
22,159 lb
DATALINK LOG | Newest first | Current as of: 2022-10-04 19:35:02
LABEL SEQUENCE CONTENT Dn/Up
QD285717:28 21.1▼ Dn
QC245417:23▼ Dn
2U1116KGRB 311653Z 33011KT 10SM OVC050 01/M09 A3014 RMK AO2 SLP213 T00061094▲ Up
2S1241KGRB▼ Dn
QB003016:59▼ Dn
QA502016:49 30▼ Dn
A34727NO MATCHING FLIGHT DATA AVAILABLE FROM ANSP▲ Up
Q04617[LINK ACK]▲ Up
Q04617[LINK TEST]▼ Dn


AIRCRAFT HISTORY
FLIGHT DATE FLIGHT NO. ORIGIN DESTINATION CLEARED ROUTE BLOCK TIME FLIGHT TIME FUEL USED PILOT
2021-03-31OAE331KMSN KGRB KMSN OSH RW360.6 hrs0.4 hrs8,692 lbKyle Weber
2021-03-12OAE110KIND KMSN KIND MEARZ SACHS BVT FATOX CADIZ OBK MSN RW361.1 hrs0.9 hrs13,467 lbKyle Weber